createdAt,value
2023-01-11T00:00:01.401Z,2.00
2023-01-11T00:00:13.837Z,1.70
2023-01-11T00:00:24.555Z,1.60
2023-01-11T00:00:36.990Z,1.60
2023-01-11T00:00:47.736Z,1.80
2023-01-11T00:00:59.495Z,1.90
2023-01-11T00:01:10.270Z,1.90
2023-01-11T00:01:22.467Z,2.00
2023-01-11T00:01:33.227Z,1.70
2023-01-11T00:01:45.747Z,1.90
2023-01-11T00:01:58.022Z,1.90
2023-01-11T00:02:08.810Z,2.20
2023-01-11T00:02:19.708Z,2.00
2023-01-11T00:02:30.493Z,2.10
2023-01-11T00:02:41.385Z,1.90
2023-01-11T00:02:52.145Z,2.10
2023-01-11T00:03:04.600Z,2.30
2023-01-11T00:03:15.340Z,2.70
2023-01-11T00:03:27.525Z,2.10
2023-01-11T00:03:39.267Z,1.90
2023-01-11T00:03:50.049Z,1.80
2023-01-11T00:04:00.829Z,1.90
2023-01-11T00:04:11.579Z,1.90
2023-01-11T00:04:22.366Z,2.20
2023-01-11T00:04:33.095Z,2.20
2023-01-11T00:04:43.908Z,2.40
2023-01-11T00:04:54.644Z,2.10
2023-01-11T00:05:05.633Z,2.00
2023-01-11T00:05:16.377Z,1.80
2023-01-11T00:05:27.121Z,2.00
2023-01-11T00:05:37.876Z,2.20
2023-01-11T00:05:49.615Z,2.10
2023-01-11T00:06:00.480Z,1.80
2023-01-11T00:06:11.259Z,1.70
2023-01-11T00:06:22.087Z,1.70
2023-01-11T00:06:32.927Z,1.80
2023-01-11T00:06:43.686Z,1.60
2023-01-11T00:06:55.404Z,1.70
2023-01-11T00:07:06.217Z,1.80
2023-01-11T00:07:16.963Z,1.90
2023-01-11T00:07:27.702Z,1.70
2023-01-11T00:07:38.448Z,1.60
2023-01-11T00:07:50.897Z,1.90
2023-01-11T00:08:01.646Z,2.10
2023-01-11T00:08:12.410Z,2.20
2023-01-11T00:08:24.448Z,1.80
2023-01-11T00:08:35.207Z,1.80
2023-01-11T00:08:46.926Z,1.80
2023-01-11T00:08:58.648Z,2.10
2023-01-11T00:09:10.893Z,2.10
2023-01-11T00:09:21.681Z,2.20
2023-01-11T00:09:33.367Z,1.80
2023-01-11T00:09:44.108Z,1.50
2023-01-11T00:09:54.867Z,2.10
2023-01-11T00:10:06.862Z,2.20
2023-01-11T00:10:17.576Z,1.90
2023-01-11T00:10:28.329Z,1.90
2023-01-11T00:10:39.092Z,1.80
2023-01-11T00:10:49.834Z,1.80
2023-01-11T00:11:01.498Z,1.80
2023-01-11T00:11:13.984Z,1.80
2023-01-11T00:11:26.394Z,1.80
2023-01-11T00:11:38.087Z,1.80
2023-01-11T00:11:51.326Z,1.70
2023-01-11T00:12:03.771Z,1.70
2023-01-11T00:12:14.548Z,1.70
2023-01-11T00:12:25.279Z,1.80
2023-01-11T00:12:38.995Z,1.80
2023-01-11T00:12:52.604Z,1.90
2023-01-11T00:13:03.381Z,2.00
2023-01-11T00:13:15.134Z,1.90
2023-01-11T00:13:27.135Z,1.90
2023-01-11T00:13:38.867Z,1.80
2023-01-11T00:13:50.569Z,1.90
2023-01-11T00:14:01.319Z,2.00
2023-01-11T00:14:13.586Z,2.00
2023-01-11T00:14:24.364Z,1.90
2023-01-11T00:14:35.102Z,2.10
2023-01-11T00:14:45.851Z,2.30
2023-01-11T00:14:56.621Z,2.40
2023-01-11T00:15:07.357Z,2.20
2023-01-11T00:15:19.827Z,2.00
2023-01-11T00:15:30.585Z,1.90
2023-01-11T00:15:43.065Z,1.80
2023-01-11T00:15:54.806Z,1.80
2023-01-11T00:16:05.662Z,1.70
2023-01-11T00:16:18.174Z,2.00
2023-01-11T00:16:30.209Z,2.00
2023-01-11T00:16:40.991Z,1.90
2023-01-11T00:16:51.855Z,2.10
2023-01-11T00:17:02.619Z,2.10
2023-01-11T00:17:15.063Z,2.10
2023-01-11T00:17:25.842Z,1.80
2023-01-11T00:17:36.603Z,1.90
2023-01-11T00:17:50.336Z,2.10
2023-01-11T00:18:01.078Z,2.00
2023-01-11T00:18:14.276Z,1.70
2023-01-11T00:18:25.999Z,1.80
2023-01-11T00:18:36.758Z,1.90
2023-01-11T00:18:47.510Z,1.90
2023-01-11T00:18:58.289Z,1.90
2023-01-11T00:19:11.014Z,1.80
2023-01-11T00:19:21.765Z,1.90
2023-01-11T00:19:32.525Z,1.90
2023-01-11T00:19:43.272Z,2.10
2023-01-11T00:19:55.088Z,2.00
2023-01-11T00:20:05.911Z,2.00
2023-01-11T00:20:16.705Z,2.00
2023-01-11T00:20:27.476Z,1.80
2023-01-11T00:20:38.250Z,1.80
2023-01-11T00:20:49.967Z,1.80
2023-01-11T00:21:00.760Z,1.70
2023-01-11T00:21:11.511Z,1.80
2023-01-11T00:21:23.221Z,1.70
2023-01-11T00:21:33.979Z,1.60
2023-01-11T00:21:45.700Z,1.80
2023-01-11T00:21:56.490Z,1.80
2023-01-11T00:22:07.278Z,1.90
2023-01-11T00:22:19.268Z,2.00
2023-01-11T00:22:31.699Z,2.00
2023-01-11T00:22:43.452Z,2.20
2023-01-11T00:22:55.174Z,2.10
2023-01-11T00:23:07.615Z,2.10
2023-01-11T00:23:20.081Z,2.20
2023-01-11T00:23:31.819Z,2.10
2023-01-11T00:23:42.620Z,2.10
2023-01-11T00:23:54.399Z,1.90
2023-01-11T00:24:06.109Z,1.80
2023-01-11T00:24:17.831Z,1.90
2023-01-11T00:24:28.569Z,1.90
2023-01-11T00:24:40.314Z,2.10
2023-01-11T00:24:52.788Z,1.80
2023-01-11T00:25:04.509Z,1.90
2023-01-11T00:25:15.256Z,1.70
2023-01-11T00:25:26.954Z,1.60
2023-01-11T00:25:37.725Z,1.60
2023-01-11T00:25:49.461Z,1.80
2023-01-11T00:26:01.171Z,1.90
2023-01-11T00:26:11.949Z,2.20
2023-01-11T00:26:22.684Z,2.10
2023-01-11T00:26:33.418Z,2.10
2023-01-11T00:26:45.143Z,1.80
2023-01-11T00:26:56.879Z,2.00
2023-01-11T00:27:09.071Z,2.10
2023-01-11T00:27:19.836Z,2.30
2023-01-11T00:27:30.643Z,2.10
2023-01-11T00:27:43.091Z,2.30
2023-01-11T00:27:54.799Z,2.20
2023-01-11T00:28:05.553Z,2.10
2023-01-11T00:28:17.303Z,2.10
2023-01-11T00:28:29.000Z,2.10
2023-01-11T00:28:39.782Z,1.90
2023-01-11T00:28:51.540Z,1.80
2023-01-11T00:29:03.286Z,2.00
2023-01-11T00:29:15.970Z,2.10
2023-01-11T00:29:26.768Z,2.30
2023-01-11T00:29:37.542Z,2.60
2023-01-11T00:29:49.731Z,2.70
2023-01-11T00:30:00.500Z,2.20
2023-01-11T00:30:11.311Z,2.00
2023-01-11T00:30:22.164Z,2.10
2023-01-11T00:30:32.949Z,1.90
2023-01-11T00:30:43.755Z,2.00
2023-01-11T00:30:54.646Z,2.50
2023-01-11T00:31:05.714Z,2.70
2023-01-11T00:31:18.305Z,2.50
2023-01-11T00:31:29.097Z,2.10
2023-01-11T00:31:39.938Z,2.10
2023-01-11T00:31:52.890Z,2.20
2023-01-11T00:32:04.706Z,2.30
2023-01-11T00:32:15.461Z,2.30
2023-01-11T00:32:27.674Z,2.30
2023-01-11T00:32:40.122Z,2.10
2023-01-11T00:32:50.897Z,2.20
2023-01-11T00:33:01.716Z,2.30
2023-01-11T00:33:13.451Z,2.50
2023-01-11T00:33:24.238Z,2.40
2023-01-11T00:33:35.067Z,2.30
2023-01-11T00:33:45.841Z,2.40
2023-01-11T00:33:56.580Z,2.30
2023-01-11T00:34:07.364Z,2.20
2023-01-11T00:34:19.121Z,2.30
2023-01-11T00:34:30.843Z,2.20
2023-01-11T00:34:41.638Z,2.00
2023-01-11T00:34:52.392Z,1.90
2023-01-11T00:35:04.109Z,2.00
2023-01-11T00:35:14.886Z,2.10
2023-01-11T00:35:25.683Z,2.00
2023-01-11T00:35:36.463Z,1.90
2023-01-11T00:35:47.320Z,1.90
2023-01-11T00:35:58.188Z,1.90
2023-01-11T00:36:11.391Z,1.70
2023-01-11T00:36:23.864Z,2.10
2023-01-11T00:36:35.582Z,2.30
2023-01-11T00:36:46.360Z,2.40
2023-01-11T00:36:57.121Z,2.30
2023-01-11T00:37:07.845Z,2.40
2023-01-11T00:37:18.582Z,2.30
2023-01-11T00:37:30.999Z,2.30
2023-01-11T00:37:41.772Z,2.20
2023-01-11T00:37:52.552Z,2.20
2023-01-11T00:38:05.765Z,2.20
2023-01-11T00:38:16.524Z,2.30
2023-01-11T00:38:28.782Z,2.20
2023-01-11T00:38:39.546Z,2.10
2023-01-11T00:38:51.895Z,2.10
2023-01-11T00:39:02.687Z,2.20
2023-01-11T00:39:15.124Z,2.20
2023-01-11T00:39:27.543Z,2.10
2023-01-11T00:39:38.273Z,2.00
2023-01-11T00:39:50.043Z,2.30
2023-01-11T00:40:00.813Z,2.10
2023-01-11T00:40:11.583Z,2.00
2023-01-11T00:40:23.314Z,2.00
2023-01-11T00:40:35.034Z,2.00
2023-01-11T00:40:47.543Z,2.40
2023-01-11T00:41:00.047Z,2.40
2023-01-11T00:41:10.824Z,2.60
2023-01-11T00:41:21.803Z,2.20
2023-01-11T00:41:32.542Z,2.40
2023-01-11T00:41:43.275Z,2.20
2023-01-11T00:41:54.056Z,2.10
2023-01-11T00:42:04.774Z,1.80
2023-01-11T00:42:17.235Z,1.90
2023-01-11T00:42:28.004Z,1.80
2023-01-11T00:42:38.735Z,1.80
2023-01-11T00:42:51.455Z,2.10
2023-01-11T00:43:03.235Z,2.10
2023-01-11T00:43:15.468Z,1.90
2023-01-11T00:43:26.215Z,2.10
2023-01-11T00:43:37.963Z,2.00
2023-01-11T00:43:49.703Z,1.90
2023-01-11T00:44:01.403Z,2.00
2023-01-11T00:44:12.143Z,2.00
2023-01-11T00:44:23.789Z,2.00
2023-01-11T00:44:34.527Z,2.10
2023-01-11T00:44:46.273Z,2.60
2023-01-11T00:44:58.745Z,2.70
2023-01-11T00:45:10.456Z,2.00
2023-01-11T00:45:22.194Z,1.80
2023-01-11T00:45:32.964Z,2.10
2023-01-11T00:45:43.701Z,2.30
2023-01-11T00:45:55.436Z,2.50
2023-01-11T00:46:07.077Z,2.30
2023-01-11T00:46:19.117Z,2.30
2023-01-11T00:46:29.928Z,2.40
2023-01-11T00:46:40.714Z,2.50
2023-01-11T00:46:51.569Z,2.30
2023-01-11T00:47:02.376Z,2.30
2023-01-11T00:47:13.099Z,2.00
2023-01-11T00:47:23.903Z,2.00
2023-01-11T00:47:35.653Z,2.20
2023-01-11T00:47:48.087Z,2.30
2023-01-11T00:47:59.802Z,2.30
2023-01-11T00:48:10.596Z,2.10
2023-01-11T00:48:22.841Z,2.20
2023-01-11T00:48:34.537Z,2.20
2023-01-11T00:48:46.309Z,2.40
2023-01-11T00:48:57.085Z,2.10
2023-01-11T00:49:08.793Z,2.10
2023-01-11T00:49:19.565Z,2.00
2023-01-11T00:49:30.325Z,2.00
2023-01-11T00:49:41.123Z,2.00
2023-01-11T00:49:51.864Z,2.00
2023-01-11T00:50:02.683Z,2.00
2023-01-11T00:50:13.426Z,2.30
2023-01-11T00:50:25.883Z,2.30
2023-01-11T00:50:36.654Z,2.10
2023-01-11T00:50:47.432Z,2.00
2023-01-11T00:50:58.148Z,2.10
2023-01-11T00:51:09.866Z,2.30
2023-01-11T00:51:20.658Z,2.30
2023-01-11T00:51:32.393Z,2.30
2023-01-11T00:51:43.280Z,2.10
2023-01-11T00:51:54.097Z,2.40
2023-01-11T00:52:05.816Z,2.30
2023-01-11T00:52:16.569Z,2.20
2023-01-11T00:52:27.323Z,2.40
2023-01-11T00:52:38.085Z,2.50
2023-01-11T00:52:48.835Z,2.50
2023-01-11T00:52:59.567Z,2.00
2023-01-11T00:53:12.024Z,1.80
2023-01-11T00:53:22.781Z,1.90
2023-01-11T00:53:33.557Z,2.00
2023-01-11T00:53:44.316Z,2.00
2023-01-11T00:53:55.085Z,1.90
2023-01-11T00:54:05.816Z,1.80
2023-01-11T00:54:16.624Z,1.70
2023-01-11T00:54:27.387Z,1.90
2023-01-11T00:54:38.154Z,2.30
2023-01-11T00:54:48.902Z,2.50
2023-01-11T00:54:59.687Z,2.50
2023-01-11T00:55:12.185Z,1.90
2023-01-11T00:55:23.983Z,1.80
2023-01-11T00:55:34.788Z,2.00
2023-01-11T00:55:46.515Z,2.10
2023-01-11T00:55:58.756Z,1.90
2023-01-11T00:56:09.507Z,2.10
2023-01-11T00:56:20.237Z,2.30
2023-01-11T00:56:30.966Z,2.40
2023-01-11T00:56:41.728Z,2.20
2023-01-11T00:56:52.459Z,2.30
2023-01-11T00:57:04.888Z,2.20
2023-01-11T00:57:16.846Z,2.40
2023-01-11T00:57:29.297Z,2.30
2023-01-11T00:57:40.088Z,2.40
2023-01-11T00:57:50.839Z,2.20
2023-01-11T00:58:01.602Z,2.20
2023-01-11T00:58:14.799Z,2.10
2023-01-11T00:58:26.480Z,2.00
2023-01-11T00:58:38.198Z,1.90
2023-01-11T00:58:49.927Z,2.20
2023-01-11T00:59:00.710Z,2.10
2023-01-11T00:59:12.937Z,2.00
2023-01-11T00:59:25.369Z,1.90
2023-01-11T00:59:39.085Z,1.90
2023-01-11T00:59:50.828Z,2.10
2023-01-11T01:00:03.092Z,2.50
2023-01-11T01:00:14.834Z,2.30
2023-01-11T01:00:25.611Z,2.00
2023-01-11T01:00:38.070Z,1.90
2023-01-11T01:00:48.841Z,1.80
2023-01-11T01:00:59.610Z,1.60
2023-01-11T01:01:10.418Z,1.60
2023-01-11T01:01:21.197Z,1.90
2023-01-11T01:01:33.033Z,2.10
2023-01-11T01:01:43.861Z,2.20
2023-01-11T01:01:55.627Z,2.10
2023-01-11T01:02:06.397Z,2.10
2023-01-11T01:02:17.203Z,1.90
2023-01-11T01:02:29.742Z,1.70
2023-01-11T01:02:42.079Z,1.90
2023-01-11T01:02:52.888Z,2.00
2023-01-11T01:03:05.431Z,2.00
2023-01-11T01:03:17.230Z,2.00
2023-01-11T01:03:28.032Z,2.10
2023-01-11T01:03:41.853Z,2.20
2023-01-11T01:03:53.638Z,2.50
2023-01-11T01:04:06.098Z,2.50
2023-01-11T01:04:16.944Z,2.10
2023-01-11T01:04:28.748Z,2.10
2023-01-11T01:04:40.487Z,2.30
2023-01-11T01:04:51.267Z,2.10
2023-01-11T01:05:02.996Z,2.00
2023-01-11T01:05:14.753Z,1.80
2023-01-11T01:05:26.992Z,2.00
2023-01-11T01:05:41.206Z,2.10
2023-01-11T01:05:52.947Z,2.10
2023-01-11T01:06:03.746Z,2.30
2023-01-11T01:06:16.969Z,2.10
2023-01-11T01:06:28.756Z,2.30
2023-01-11T01:06:39.535Z,2.00
2023-01-11T01:06:50.408Z,1.90
2023-01-11T01:07:03.117Z,2.00
2023-01-11T01:07:13.895Z,1.80
2023-01-11T01:07:25.600Z,1.80
2023-01-11T01:07:36.338Z,2.10
2023-01-11T01:07:48.789Z,2.10
2023-01-11T01:07:59.529Z,2.20
2023-01-11T01:08:11.265Z,2.00
2023-01-11T01:08:21.983Z,2.10
2023-01-11T01:08:33.752Z,2.00
2023-01-11T01:08:44.526Z,1.90
2023-01-11T01:08:55.289Z,1.90
2023-01-11T01:09:08.501Z,1.90
2023-01-11T01:09:19.314Z,1.90
2023-01-11T01:09:30.110Z,2.10
2023-01-11T01:09:41.884Z,2.00
2023-01-11T01:09:52.619Z,1.80
2023-01-11T01:10:04.350Z,1.90
2023-01-11T01:10:15.123Z,2.00
2023-01-11T01:10:26.901Z,1.90
2023-01-11T01:10:37.701Z,2.20
2023-01-11T01:10:48.512Z,2.30
2023-01-11T01:10:59.327Z,2.30
2023-01-11T01:11:10.065Z,2.40
2023-01-11T01:11:20.826Z,2.40
2023-01-11T01:11:31.602Z,2.30
2023-01-11T01:11:43.342Z,2.30
2023-01-11T01:11:54.097Z,2.30
2023-01-11T01:12:04.834Z,2.10
2023-01-11T01:12:16.562Z,2.10
2023-01-11T01:12:27.337Z,2.00
2023-01-11T01:12:38.149Z,2.00
2023-01-11T01:12:48.960Z,2.10
2023-01-11T01:12:59.774Z,2.10
2023-01-11T01:13:10.500Z,2.20
2023-01-11T01:13:21.251Z,2.00
2023-01-11T01:13:32.039Z,1.90
2023-01-11T01:13:42.871Z,2.00
2023-01-11T01:13:53.863Z,2.20
2023-01-11T01:14:04.678Z,2.10
2023-01-11T01:14:15.392Z,1.80
2023-01-11T01:14:26.349Z,1.80
2023-01-11T01:14:37.381Z,1.80
2023-01-11T01:14:48.187Z,1.90
2023-01-11T01:14:59.903Z,1.90
2023-01-11T01:15:10.662Z,2.00
2023-01-11T01:15:22.380Z,1.70
2023-01-11T01:15:33.230Z,1.70
2023-01-11T01:15:44.071Z,1.70
2023-01-11T01:15:56.549Z,2.00
2023-01-11T01:16:07.407Z,2.10
2023-01-11T01:16:18.212Z,2.00
2023-01-11T01:16:29.012Z,1.90
2023-01-11T01:16:39.803Z,1.90
2023-01-11T01:16:50.610Z,2.00
2023-01-11T01:17:01.380Z,2.00
2023-01-11T01:17:12.171Z,2.10
2023-01-11T01:17:22.931Z,2.10
2023-01-11T01:17:33.745Z,2.00
2023-01-11T01:17:44.521Z,2.00
2023-01-11T01:17:55.264Z,1.90
2023-01-11T01:18:06.012Z,1.90
2023-01-11T01:18:18.451Z,1.90
2023-01-11T01:18:29.203Z,2.00
2023-01-11T01:18:40.951Z,1.80
2023-01-11T01:18:51.711Z,1.80
2023-01-11T01:19:02.534Z,1.90
2023-01-11T01:19:13.262Z,2.10
2023-01-11T01:19:25.010Z,2.10
2023-01-11T01:19:35.752Z,2.10
2023-01-11T01:19:46.535Z,1.90
2023-01-11T01:19:57.270Z,1.90
2023-01-11T01:20:08.264Z,1.90
2023-01-11T01:20:19.013Z,1.90
2023-01-11T01:20:30.742Z,1.90
2023-01-11T01:20:41.532Z,2.10
2023-01-11T01:20:52.298Z,2.20
2023-01-11T01:21:03.095Z,2.20
2023-01-11T01:21:13.833Z,1.90
2023-01-11T01:21:24.613Z,2.20
2023-01-11T01:21:35.402Z,2.20
2023-01-11T01:21:46.182Z,2.30
2023-01-11T01:21:57.933Z,2.10
2023-01-11T01:22:08.681Z,1.80
2023-01-11T01:22:19.443Z,2.00
2023-01-11T01:22:31.934Z,2.00
2023-01-11T01:22:45.144Z,1.90
2023-01-11T01:22:57.597Z,2.00
2023-01-11T01:23:10.312Z,2.00
2023-01-11T01:23:23.293Z,2.10
2023-01-11T01:23:34.092Z,2.40
2023-01-11T01:23:47.312Z,2.40
2023-01-11T01:23:59.763Z,2.10
2023-01-11T01:24:10.493Z,2.30
2023-01-11T01:24:22.664Z,2.40
2023-01-11T01:24:35.136Z,2.20
2023-01-11T01:24:47.738Z,2.10
2023-01-11T01:25:01.032Z,2.00
2023-01-11T01:25:13.255Z,2.10
2023-01-11T01:25:26.483Z,1.90
2023-01-11T01:25:38.223Z,2.10
2023-01-11T01:25:48.965Z,2.00
2023-01-11T01:26:00.683Z,2.10
2023-01-11T01:26:11.424Z,1.90
2023-01-11T01:26:22.194Z,1.90
2023-01-11T01:26:32.963Z,1.90
2023-01-11T01:26:45.365Z,1.80
2023-01-11T01:26:57.188Z,1.90
2023-01-11T01:27:08.905Z,2.10
2023-01-11T01:27:19.643Z,2.20
2023-01-11T01:27:31.395Z,2.50
2023-01-11T01:27:42.120Z,2.20
2023-01-11T01:27:52.874Z,2.10
2023-01-11T01:28:04.575Z,1.70
2023-01-11T01:28:15.342Z,1.80
2023-01-11T01:28:26.119Z,1.80
2023-01-11T01:28:37.875Z,1.70
2023-01-11T01:28:48.605Z,2.00
2023-01-11T01:28:59.423Z,2.20
2023-01-11T01:29:10.191Z,2.10
2023-01-11T01:29:21.142Z,1.90
2023-01-11T01:29:33.628Z,1.90
2023-01-11T01:29:45.344Z,1.90
2023-01-11T01:29:56.177Z,2.00
2023-01-11T01:30:06.926Z,2.10
2023-01-11T01:30:19.390Z,2.00
2023-01-11T01:30:31.127Z,2.20
2023-01-11T01:30:41.903Z,2.20
2023-01-11T01:30:52.731Z,1.80
2023-01-11T01:31:03.532Z,1.90
2023-01-11T01:31:15.294Z,2.00
2023-01-11T01:31:26.155Z,1.90
2023-01-11T01:31:37.045Z,1.90
2023-01-11T01:31:48.725Z,2.30
2023-01-11T01:31:59.545Z,2.20
2023-01-11T01:32:10.325Z,2.00
2023-01-11T01:32:21.075Z,1.80
2023-01-11T01:32:31.928Z,1.80
2023-01-11T01:32:43.668Z,1.90
2023-01-11T01:32:54.477Z,1.90
2023-01-11T01:33:05.239Z,1.90
2023-01-11T01:33:16.005Z,1.80
2023-01-11T01:33:26.807Z,1.90
2023-01-11T01:33:37.618Z,2.10
2023-01-11T01:33:48.369Z,2.10
2023-01-11T01:33:59.215Z,2.20
2023-01-11T01:34:10.008Z,2.10
2023-01-11T01:34:20.769Z,2.10
2023-01-11T01:34:31.516Z,2.00
2023-01-11T01:34:42.312Z,2.20
2023-01-11T01:34:53.121Z,2.10
2023-01-11T01:35:04.853Z,2.10
2023-01-11T01:35:16.636Z,2.30
2023-01-11T01:35:27.438Z,2.30
2023-01-11T01:35:38.293Z,2.20
2023-01-11T01:35:49.057Z,1.90
2023-01-11T01:36:00.817Z,2.10
2023-01-11T01:36:11.599Z,2.00
2023-01-11T01:36:22.368Z,2.00
2023-01-11T01:36:33.147Z,1.90
2023-01-11T01:36:45.137Z,2.00
2023-01-11T01:36:56.842Z,2.00
2023-01-11T01:37:07.566Z,1.90
2023-01-11T01:37:18.362Z,1.80
2023-01-11T01:37:30.616Z,1.90
2023-01-11T01:37:42.388Z,1.80
2023-01-11T01:37:53.123Z,1.80
2023-01-11T01:38:03.917Z,2.00
2023-01-11T01:38:14.658Z,2.10
2023-01-11T01:38:25.448Z,2.10
2023-01-11T01:38:37.158Z,2.00
2023-01-11T01:38:47.928Z,2.00
2023-01-11T01:38:58.707Z,1.90
2023-01-11T01:39:09.446Z,1.90
2023-01-11T01:39:20.230Z,1.90
2023-01-11T01:39:32.662Z,1.90
2023-01-11T01:39:43.539Z,1.70
2023-01-11T01:39:54.297Z,1.80
2023-01-11T01:40:05.085Z,1.80
2023-01-11T01:40:15.839Z,2.00
2023-01-11T01:40:26.647Z,2.20
2023-01-11T01:40:37.424Z,2.10
2023-01-11T01:40:49.151Z,2.10
2023-01-11T01:41:00.881Z,2.00
2023-01-11T01:41:11.659Z,2.00
2023-01-11T01:41:23.360Z,1.80
2023-01-11T01:41:34.131Z,1.90
2023-01-11T01:41:44.926Z,1.80
2023-01-11T01:41:57.398Z,2.10
2023-01-11T01:42:08.126Z,2.00
2023-01-11T01:42:18.918Z,1.60
2023-01-11T01:42:31.863Z,1.70
2023-01-11T01:42:42.651Z,1.80
2023-01-11T01:42:55.130Z,2.00
2023-01-11T01:43:06.847Z,2.00
2023-01-11T01:43:17.597Z,1.60
2023-01-11T01:43:28.367Z,1.70
2023-01-11T01:43:41.088Z,2.30
2023-01-11T01:43:51.870Z,2.40
2023-01-11T01:44:03.646Z,2.40
2023-01-11T01:44:14.397Z,2.30
2023-01-11T01:44:26.839Z,2.20
2023-01-11T01:44:39.797Z,1.90
2023-01-11T01:44:52.250Z,2.00
2023-01-11T01:45:04.017Z,2.00
2023-01-11T01:45:17.432Z,1.70
2023-01-11T01:45:30.426Z,1.70
2023-01-11T01:45:43.656Z,2.40
2023-01-11T01:45:56.212Z,2.60
2023-01-11T01:46:06.986Z,2.40
2023-01-11T01:46:19.325Z,2.30
2023-01-11T01:46:32.590Z,2.00
2023-01-11T01:46:44.546Z,1.50
2023-01-11T01:46:56.802Z,1.60
2023-01-11T01:47:08.533Z,1.60
2023-01-11T01:47:20.219Z,1.80
2023-01-11T01:47:31.000Z,1.80
2023-01-11T01:47:42.975Z,2.00
2023-01-11T01:47:54.727Z,1.90
2023-01-11T01:48:06.458Z,2.10
2023-01-11T01:48:18.229Z,2.20
2023-01-11T01:48:29.010Z,1.90
2023-01-11T01:48:39.787Z,1.70
2023-01-11T01:48:52.001Z,1.70
2023-01-11T01:49:02.797Z,1.70
2023-01-11T01:49:15.893Z,1.90
2023-01-11T01:49:28.849Z,1.80
2023-01-11T01:49:40.568Z,1.70
2023-01-11T01:49:51.349Z,1.80
2023-01-11T01:50:04.617Z,1.90
2023-01-11T01:50:15.340Z,1.90
2023-01-11T01:50:27.552Z,1.90
2023-01-11T01:50:39.300Z,1.90
2023-01-11T01:50:50.116Z,1.90
2023-01-11T01:51:01.842Z,1.80
2023-01-11T01:51:12.560Z,1.50
2023-01-11T01:51:24.278Z,1.50
2023-01-11T01:51:35.069Z,1.60
2023-01-11T01:51:45.895Z,1.90
2023-01-11T01:51:57.619Z,1.90
2023-01-11T01:52:08.439Z,2.00
2023-01-11T01:52:20.857Z,1.80
2023-01-11T01:52:31.619Z,2.00
2023-01-11T01:52:44.092Z,1.80
2023-01-11T01:52:54.840Z,2.00
2023-01-11T01:53:05.691Z,1.70
2023-01-11T01:53:16.460Z,1.70
2023-01-11T01:53:28.929Z,1.70
2023-01-11T01:53:39.712Z,1.70
2023-01-11T01:53:51.457Z,1.70
2023-01-11T01:54:03.894Z,1.70
2023-01-11T01:54:14.640Z,1.60
2023-01-11T01:54:26.854Z,1.50
2023-01-11T01:54:38.587Z,1.60
2023-01-11T01:54:49.360Z,1.70
2023-01-11T01:55:00.123Z,1.90
2023-01-11T01:55:11.899Z,2.00
2023-01-11T01:55:22.700Z,2.10
2023-01-11T01:55:33.475Z,1.90
2023-01-11T01:55:45.911Z,2.10
2023-01-11T01:55:56.661Z,1.90
2023-01-11T01:56:07.442Z,1.70
2023-01-11T01:56:19.895Z,1.90
2023-01-11T01:56:31.682Z,1.90
2023-01-11T01:56:42.486Z,1.80
2023-01-11T01:56:54.939Z,1.80
2023-01-11T01:57:05.710Z,1.70
2023-01-11T01:57:17.489Z,1.60
2023-01-11T01:57:28.271Z,1.70
2023-01-11T01:57:40.010Z,1.70
2023-01-11T01:57:50.791Z,1.80
2023-01-11T01:58:02.513Z,1.70
2023-01-11T01:58:13.316Z,1.70
2023-01-11T01:58:24.058Z,1.60
2023-01-11T01:58:35.806Z,1.70
2023-01-11T01:58:46.632Z,1.90
2023-01-11T01:58:57.440Z,1.80
2023-01-11T01:59:09.160Z,1.70
2023-01-11T01:59:19.940Z,1.50
2023-01-11T01:59:30.734Z,1.50
2023-01-11T01:59:42.422Z,1.40
2023-01-11T01:59:53.242Z,1.50
2023-01-11T02:00:04.971Z,1.70
2023-01-11T02:00:16.737Z,1.70
2023-01-11T02:00:28.516Z,1.80
2023-01-11T02:00:39.295Z,1.70
2023-01-11T02:00:51.764Z,1.50
2023-01-11T02:01:04.250Z,1.60
2023-01-11T02:01:15.072Z,2.20
2023-01-11T02:01:25.854Z,2.10
2023-01-11T02:01:36.612Z,2.30
2023-01-11T02:01:47.608Z,1.80
2023-01-11T02:01:59.480Z,1.90
2023-01-11T02:02:10.310Z,1.80
2023-01-11T02:02:22.798Z,1.70
2023-01-11T02:02:33.652Z,1.60
2023-01-11T02:02:45.487Z,1.60
2023-01-11T02:02:57.235Z,1.90
2023-01-11T02:03:09.704Z,1.90
2023-01-11T02:03:20.482Z,1.80
2023-01-11T02:03:31.236Z,1.90
2023-01-11T02:03:43.735Z,1.80
2023-01-11T02:03:54.531Z,1.80
2023-01-11T02:04:06.832Z,1.70
2023-01-11T02:04:17.572Z,1.50
2023-01-11T02:04:28.344Z,1.70
2023-01-11T02:04:39.113Z,2.00
2023-01-11T02:04:51.844Z,2.00
2023-01-11T02:05:02.571Z,1.90
2023-01-11T02:05:13.382Z,1.80
2023-01-11T02:05:24.131Z,1.80
2023-01-11T02:05:35.880Z,2.10
2023-01-11T02:05:48.343Z,2.00
2023-01-11T02:06:00.794Z,2.00
2023-01-11T02:06:12.783Z,1.70
2023-01-11T02:06:24.511Z,1.60
2023-01-11T02:06:37.031Z,1.60
2023-01-11T02:06:49.541Z,1.70
2023-01-11T02:07:00.321Z,1.90
2023-01-11T02:07:13.467Z,1.80
2023-01-11T02:07:26.700Z,1.70
2023-01-11T02:07:37.515Z,1.90
2023-01-11T02:07:49.283Z,1.80
2023-01-11T02:08:00.053Z,1.70
2023-01-11T02:08:12.264Z,1.60
2023-01-11T02:08:24.004Z,1.50
2023-01-11T02:08:34.775Z,1.90
2023-01-11T02:08:45.532Z,2.00
2023-01-11T02:08:58.006Z,1.60
2023-01-11T02:09:10.454Z,1.60
2023-01-11T02:09:21.242Z,1.60
2023-01-11T02:09:32.040Z,1.60
2023-01-11T02:09:44.723Z,1.70
2023-01-11T02:09:56.933Z,1.90
2023-01-11T02:10:09.648Z,2.20
2023-01-11T02:10:22.160Z,2.10
2023-01-11T02:10:32.913Z,1.90
2023-01-11T02:10:43.917Z,2.10
2023-01-11T02:10:55.887Z,2.00
2023-01-11T02:11:09.489Z,2.10
2023-01-11T02:11:20.465Z,2.20
2023-01-11T02:11:32.448Z,2.20
2023-01-11T02:11:44.153Z,2.10
2023-01-11T02:11:55.907Z,2.00
2023-01-11T02:12:07.604Z,2.00
2023-01-11T02:12:18.414Z,1.90
2023-01-11T02:12:30.697Z,1.90
2023-01-11T02:12:42.452Z,2.00
2023-01-11T02:12:54.197Z,2.20
2023-01-11T02:13:05.917Z,2.00
2023-01-11T02:13:18.385Z,2.10
2023-01-11T02:13:29.154Z,1.90
2023-01-11T02:13:41.593Z,2.10
2023-01-11T02:13:54.039Z,2.00
2023-01-11T02:14:04.817Z,1.80
2023-01-11T02:14:16.575Z,2.00
2023-01-11T02:14:27.456Z,2.20
2023-01-11T02:14:39.216Z,2.20
2023-01-11T02:14:50.028Z,2.10
2023-01-11T02:15:00.769Z,2.00
2023-01-11T02:15:12.504Z,1.90
2023-01-11T02:15:23.269Z,1.90
2023-01-11T02:15:34.034Z,2.10
2023-01-11T02:15:44.796Z,2.10
2023-01-11T02:15:55.627Z,2.10
2023-01-11T02:16:07.629Z,2.00
2023-01-11T02:16:19.718Z,1.80
2023-01-11T02:16:31.956Z,1.80
2023-01-11T02:16:42.743Z,2.10
2023-01-11T02:16:53.546Z,2.10
2023-01-11T02:17:04.309Z,2.00
2023-01-11T02:17:15.135Z,1.80
2023-01-11T02:17:26.856Z,1.90
2023-01-11T02:17:37.615Z,2.10
2023-01-11T02:17:49.370Z,2.20
2023-01-11T02:18:01.881Z,2.30
2023-01-11T02:18:12.669Z,2.00
2023-01-11T02:18:24.431Z,2.00
2023-01-11T02:18:35.208Z,2.10
2023-01-11T02:18:45.955Z,2.20
2023-01-11T02:18:56.795Z,2.10
2023-01-11T02:19:07.545Z,2.30
2023-01-11T02:19:18.323Z,2.30
2023-01-11T02:19:30.054Z,2.20
2023-01-11T02:19:43.255Z,2.30
2023-01-11T02:19:54.055Z,2.30
2023-01-11T02:20:04.846Z,2.10
2023-01-11T02:20:15.614Z,2.10
2023-01-11T02:20:28.091Z,1.90
2023-01-11T02:20:38.843Z,1.90
2023-01-11T02:20:49.677Z,1.90
2023-01-11T02:21:00.511Z,2.10
2023-01-11T02:21:12.456Z,2.30
2023-01-11T02:21:24.889Z,2.30
2023-01-11T02:21:35.706Z,2.50
2023-01-11T02:21:46.466Z,2.20
2023-01-11T02:21:57.288Z,2.10
2023-01-11T02:22:08.047Z,1.90
2023-01-11T02:22:20.287Z,2.00
2023-01-11T02:22:32.107Z,2.00
2023-01-11T02:22:42.836Z,2.00
2023-01-11T02:22:53.620Z,1.90
2023-01-11T02:23:04.404Z,2.00
2023-01-11T02:23:15.158Z,2.10
2023-01-11T02:23:28.365Z,2.30
2023-01-11T02:23:39.129Z,2.10
2023-01-11T02:23:49.909Z,2.00
2023-01-11T02:24:00.660Z,2.00
2023-01-11T02:24:11.408Z,2.00
2023-01-11T02:24:23.607Z,1.90
2023-01-11T02:24:34.423Z,1.70
2023-01-11T02:24:45.167Z,1.80
2023-01-11T02:24:55.939Z,1.90
2023-01-11T02:25:06.727Z,2.10
2023-01-11T02:25:17.527Z,2.10
2023-01-11T02:25:30.447Z,1.80
2023-01-11T02:25:41.217Z,2.00
2023-01-11T02:25:51.987Z,2.10
2023-01-11T02:26:02.772Z,2.10
2023-01-11T02:26:13.537Z,1.90
2023-01-11T02:26:26.039Z,2.00
2023-01-11T02:26:36.808Z,2.10
2023-01-11T02:26:50.031Z,2.00
2023-01-11T02:27:02.485Z,2.00
2023-01-11T02:27:13.336Z,2.00
2023-01-11T02:27:26.546Z,2.00
2023-01-11T02:27:38.995Z,1.90
2023-01-11T02:27:51.451Z,1.80
2023-01-11T02:28:02.213Z,1.90
2023-01-11T02:28:12.958Z,2.00
2023-01-11T02:28:24.676Z,1.90
2023-01-11T02:28:36.899Z,2.30
2023-01-11T02:28:47.662Z,2.40
2023-01-11T02:29:36.868Z,0.00
2023-01-11T02:29:47.597Z,2.10
2023-01-11T02:29:58.334Z,2.30
2023-01-11T02:30:09.128Z,2.40
2023-01-11T02:30:21.965Z,2.60
2023-01-11T02:30:32.735Z,2.40
2023-01-11T02:30:44.516Z,2.40
2023-01-11T02:30:55.293Z,2.40
2023-01-11T02:31:07.761Z,2.20
2023-01-11T02:31:19.750Z,2.20
2023-01-11T02:31:32.252Z,2.40
2023-01-11T02:31:45.320Z,2.40
2023-01-11T02:31:57.038Z,2.30
2023-01-11T02:32:07.788Z,2.20